Time;durP1;ratioP1;P1;durP2;ratioP2;P2;SDS_P1;SDS_P2;PMS_P1;PMS_P2;Temp;Humidity;BMP_temperature;BMP_pressure;BME280_temperature;BME280_humidity;BME280_pressure;Samples;Min_cycle;Max_cycle;Signal;HPM_P1;HPM_P2
2022/04/19 00:00:52;;;;;;;5.72;2.10;;;13.90;33.00;;;;;;5032578;28;20064;-70
2022/04/19 00:03:18;;;;;;;4.40;2.15;;;13.80;32.60;;;;;;5032789;28;20478;-70
2022/04/19 00:05:45;;;;;;;5.93;1.95;;;13.70;32.70;;;;;;5032846;28;20053;-70
2022/04/19 00:08:12;;;;;;;4.65;2.00;;;13.70;33.00;;;;;;5036264;28;20033;-71
2022/04/19 00:10:40;;;;;;;5.72;2.40;;;13.70;33.60;;;;;;5036414;28;20539;-70
2022/04/19 00:13:07;;;;;;;5.28;2.10;;;13.70;34.00;;;;;;5036294;28;20383;-69
2022/04/19 00:15:34;;;;;;;6.38;2.17;;;13.70;33.70;;;;;;5051400;28;20021;-70
2022/04/19 00:18:02;;;;;;;4.70;2.03;;;13.60;33.40;;;;;;5036349;28;20026;-71
2022/04/19 00:20:30;;;;;;;6.18;2.10;;;13.50;33.00;;;;;;5036225;28;20025;-72
2022/04/19 00:22:56;;;;;;;5.10;2.20;;;13.50;33.00;;;;;;5036232;28;20091;-71
2022/04/19 00:25:22;;;;;;;3.63;1.83;;;13.50;32.70;;;;;;5036074;28;20429;-71
2022/04/19 00:27:48;;;;;;;4.55;1.90;;;13.40;32.60;;;;;;5036123;28;20026;-71
2022/04/19 00:30:14;;;;;;;3.38;1.65;;;13.40;32.40;;;;;;5036104;28;20032;-71
2022/04/19 00:32:40;;;;;;;4.25;1.90;;;13.40;32.30;;;;;;5035828;28;20025;-70
2022/04/19 00:35:08;;;;;;;6.82;2.00;;;13.40;32.50;;;;;;5036013;28;20360;-70
2022/04/19 00:37:35;;;;;;;6.18;1.88;;;13.40;32.40;;;;;;5035867;28;20083;-72
2022/04/19 00:40:04;;;;;;;3.83;1.75;;;13.40;32.40;;;;;;5035924;28;20482;-70
2022/04/19 00:42:30;;;;;;;5.05;2.20;;;13.40;32.80;;;;;;5035507;28;20396;-71
2022/04/19 00:44:57;;;;;;;3.80;1.70;;;13.50;32.60;;;;;;5035543;28;20045;-70
2022/04/19 00:47:23;;;;;;;5.30;2.20;;;13.50;32.40;;;;;;5035693;28;20026;-71
2022/04/19 00:49:49;;;;;;;4.78;2.10;;;13.40;32.10;;;;;;5035679;28;20111;-70
2022/04/19 00:52:16;;;;;;;5.25;2.15;;;13.30;32.00;;;;;;5017773;28;20463;-71
2022/04/19 00:54:42;;;;;;;5.07;2.33;;;13.30;32.10;;;;;;5035218;28;20030;-71
2022/04/19 00:57:08;;;;;;;4.45;1.88;;;13.30;32.10;;;;;;5035514;28;20387;-71
2022/04/19 00:59:34;;;;;;;5.20;1.95;;;13.30;31.70;;;;;;5035422;28;20048;-71
2022/04/19 01:02:00;;;;;;;5.32;2.13;;;13.20;32.00;;;;;;5035521;28;20025;-70
2022/04/19 01:04:26;;;;;;;3.92;1.98;;;13.30;32.00;;;;;;5035440;28;20036;-72
2022/04/19 01:06:52;;;;;;;4.18;2.10;;;13.30;32.20;;;;;;5035329;28;20088;-71
2022/04/19 01:09:20;;;;;;;4.97;1.73;;;13.30;32.10;;;;;;5035261;28;20485;-71
2022/04/19 01:14:33;;;;;;;4.70;2.03;;;13.10;31.10;;;;;;5035467;28;20039;-70
2022/04/19 01:17:00;;;;;;;4.93;2.10;;;13.10;32.30;;;;;;5050071;28;20029;-70
2022/04/19 01:19:25;;;;;;;3.92;2.00;;;13.00;32.20;;;;;;5035136;28;20483;-70
2022/04/19 01:21:57;;;;;;;4.70;1.95;;;13.00;32.10;;;;;;5035114;28;20079;-70
2022/04/19 01:24:23;;;;;;;4.75;2.10;;;12.90;32.40;;;;;;5017128;28;20029;-70
2022/04/19 01:26:52;;;;;;;6.68;2.28;;;12.90;32.60;;;;;;5034986;28;20470;-71
2022/04/19 01:29:18;;;;;;;4.57;2.00;;;12.90;32.70;;;;;;5034897;28;20041;-70
2022/04/19 01:31:45;;;;;;;6.43;2.13;;;12.90;32.80;;;;;;5035390;28;20018;-70
2022/04/19 01:34:12;;;;;;;3.88;1.90;;;12.80;32.90;;;;;;5034704;28;20025;-70
2022/04/19 01:36:38;;;;;;;6.72;2.03;;;12.80;33.00;;;;;;5034500;28;20021;-71
2022/04/19 01:39:09;;;;;;;4.40;2.00;;;12.80;33.50;;;;;;5034931;28;20143;-71
2022/04/19 01:41:36;;;;;;;4.38;2.13;;;12.90;32.00;;;;;;5034537;28;20049;-70
2022/04/19 01:44:05;;;;;;;5.25;2.50;;;12.90;33.60;;;;;;5034239;28;20029;-70
2022/04/19 01:46:34;;;;;;;5.03;2.00;;;12.90;33.60;;;;;;5034482;28;20040;-70
2022/04/19 01:49:02;;;;;;;4.97;2.40;;;12.90;33.60;;;;;;5034429;28;20135;-71
2022/04/19 01:51:27;;;;;;;4.25;2.30;;;12.90;34.10;;;;;;5034376;28;20030;-71
2022/04/19 01:53:55;;;;;;;6.15;2.22;;;13.00;34.30;;;;;;5034228;28;20491;-70
2022/04/19 01:56:21;;;;;;;5.85;2.70;;;13.00;34.70;;;;;;5034453;28;20032;-70
2022/04/19 01:58:48;;;;;;;6.45;2.40;;;12.90;34.70;;;;;;5034408;28;20069;-71
2022/04/19 02:01:17;;;;;;;5.20;2.15;;;12.90;34.30;;;;;;5016554;28;20108;-70
2022/04/19 02:03:42;;;;;;;5.75;2.20;;;12.80;32.90;;;;;;5033994;28;20017;-71
2022/04/19 02:06:10;;;;;;;6.93;2.70;;;12.80;34.80;;;;;;5034137;28;20467;-71
2022/04/19 02:08:36;;;;;;;7.47;2.60;;;12.70;35.10;;;;;;5034006;28;20026;-70
2022/04/19 02:11:02;;;;;;;6.00;2.50;;;12.80;35.20;;;;;;5034204;28;20021;-71
2022/04/19 02:13:28;;;;;;;5.88;2.38;;;12.80;35.30;;;;;;5033699;28;20501;-70
2022/04/19 02:15:54;;;;;;;5.72;2.28;;;12.80;35.50;;;;;;5034093;28;20429;-70
2022/04/19 02:18:20;;;;;;;6.32;2.97;;;12.80;35.70;;;;;;5034004;28;20025;-69
2022/04/19 02:20:46;;;;;;;5.75;2.70;;;12.70;35.60;;;;;;5033984;28;20032;-70
2022/04/19 02:23:13;;;;;;;5.03;2.70;;;12.70;35.60;;;;;;5033763;28;20037;-71
2022/04/19 02:25:39;;;;;;;6.95;2.80;;;12.80;36.40;;;;;;5033612;28;20025;-70
2022/04/19 02:28:06;;;;;;;5.22;2.67;;;12.70;36.60;;;;;;5033849;28;20100;-71
2022/04/19 02:30:33;;;;;;;5.43;2.60;;;12.60;36.50;;;;;;5032825;28;20036;-71
2022/04/19 02:33:01;;;;;;;6.07;3.08;;;12.60;36.60;;;;;;5033579;28;20021;-72
2022/04/19 02:35:28;;;;;;;7.78;2.70;;;12.60;37.00;;;;;;5033371;28;20447;-71
2022/04/19 02:37:56;;;;;;;5.57;2.33;;;12.50;36.90;;;;;;5033435;28;20034;-70
2022/04/19 02:40:23;;;;;;;8.27;3.03;;;12.40;37.40;;;;;;5015909;28;20430;-71
2022/04/19 02:42:50;;;;;;;5.97;2.40;;;12.40;37.30;;;;;;5033478;28;20467;-71
2022/04/19 02:45:19;;;;;;;7.72;2.70;;;12.30;37.20;;;;;;5032984;28;20120;-70
2022/04/19 02:47:45;;;;;;;7.47;2.67;;;12.30;37.30;;;;;;5033366;28;20156;-71
2022/04/19 02:50:11;;;;;;;6.47;2.70;;;12.40;37.50;;;;;;5033176;28;20102;-71
2022/04/19 02:52:37;;;;;;;5.88;2.58;;;12.30;37.70;;;;;;5033323;28;20447;-70
2022/04/19 02:55:03;;;;;;;8.68;2.97;;;12.30;37.40;;;;;;5033264;28;20463;-71
2022/04/19 02:57:29;;;;;;;5.60;2.50;;;12.30;38.20;;;;;;5033191;28;20055;-70
2022/04/19 02:59:54;;;;;;;8.93;2.83;;;12.30;37.90;;;;;;5033322;28;20467;-71
2022/04/19 03:02:20;;;;;;;9.23;2.60;;;12.30;38.20;;;;;;5033338;28;20033;-71
2022/04/19 03:04:46;;;;;;;8.02;2.75;;;12.30;38.30;;;;;;5033503;28;20032;-71
2022/04/19 03:07:14;;;;;;;8.13;2.78;;;12.30;39.30;;;;;;5033177;28;20035;-71
2022/04/19 03:09:43;;;;;;;5.90;2.80;;;12.30;38.20;;;;;;5033210;28;20053;-72
2022/04/19 03:12:14;;;;;;;4.60;2.13;;;12.30;37.50;;;;;;5033111;28;20083;-71
2022/04/19 03:14:41;;;;;;;10.48;3.28;;;12.30;38.80;;;;;;5033063;28;20018;-69
2022/04/19 03:17:07;;;;;;;4.43;2.45;;;12.20;39.10;;;;;;5032828;28;20378;-71
2022/04/19 03:19:33;;;;;;;5.97;2.65;;;12.20;39.40;;;;;;5033220;28;20026;-71
2022/04/19 03:21:59;;;;;;;7.13;2.90;;;12.20;39.40;;;;;;5033010;28;20060;-70
2022/04/19 03:29:53;;;;;;;6.53;2.88;;;12.20;40.10;;;;;;5032737;28;19920;-71
2022/04/19 03:32:23;;;;;;;7.78;2.95;;;12.30;40.20;;;;;;5033170;28;20022;-70
2022/04/19 03:34:50;;;;;;;5.70;3.00;;;12.30;39.70;;;;;;5032945;28;20022;-71
2022/04/19 03:37:17;;;;;;;9.25;3.30;;;12.20;40.60;;;;;;5033019;28;20025;-70
2022/04/19 03:39:43;;;;;;;7.30;2.92;;;12.20;40.70;;;;;;5032909;28;20026;-70
2022/04/19 03:42:09;;;;;;;11.48;3.00;;;12.10;40.80;;;;;;5036730;28;20033;-71
2022/04/19 03:44:35;;;;;;;6.35;2.88;;;12.10;41.50;;;;;;5036684;28;20148;-71
2022/04/19 03:47:09;;;;;;;8.20;3.08;;;12.00;41.00;;;;;;5036714;28;20025;-70
2022/04/19 03:49:39;;;;;;;10.65;3.47;;;11.90;40.80;;;;;;5036789;28;20037;-70
2022/04/19 03:52:06;;;;;;;7.00;3.15;;;11.90;41.50;;;;;;5036483;28;20017;-69
2022/04/19 03:54:34;;;;;;;8.80;3.47;;;11.90;42.40;;;;;;5018742;28;20086;-70
2022/04/19 03:57:03;;;;;;;7.97;3.30;;;11.90;42.60;;;;;;5019121;28;20112;-70
2022/04/19 03:59:30;;;;;;;6.10;2.85;;;11.80;42.40;;;;;;5036700;28;20025;-70
2022/04/19 04:01:56;;;;;;;11.25;3.45;;;11.90;42.80;;;;;;5036477;28;20018;-70
2022/04/19 04:04:22;;;;;;;12.07;3.25;;;11.90;42.60;;;;;;5036406;28;20037;-70
2022/04/19 04:06:48;;;;;;;11.77;5.68;;;12.00;42.50;;;;;;5036434;28;20017;-69
2022/04/19 04:09:14;;;;;;;11.18;3.85;;;12.00;42.30;;;;;;5036344;28;20038;-71
2022/04/19 04:11:39;;;;;;;9.32;3.20;;;12.10;42.90;;;;;;5036122;28;20410;-71
2022/04/19 04:14:05;;;;;;;7.72;3.30;;;12.10;42.80;;;;;;5036190;28;20060;-70
2022/04/19 04:16:31;;;;;;;8.55;4.03;;;12.10;43.40;;;;;;5018399;28;20498;-71
2022/04/19 04:18:56;;;;;;;8.25;3.05;;;12.00;43.80;;;;;;5018346;28;20420;-72
2022/04/19 04:21:22;;;;;;;8.50;3.55;;;11.90;43.90;;;;;;5036059;28;20398;-71
2022/04/19 04:23:48;;;;;;;11.20;3.83;;;11.90;43.80;;;;;;5018107;28;20036;-71
2022/04/19 04:26:13;;;;;;;9.50;3.85;;;11.80;43.80;;;;;;5036059;28;20026;-72
2022/04/19 04:28:39;;;;;;;7.72;3.30;;;11.80;43.90;;;;;;5036157;28;20056;-70
2022/04/19 04:31:06;;;;;;;8.48;3.92;;;11.80;44.20;;;;;;5036027;28;20029;-71
2022/04/19 04:33:31;;;;;;;10.95;3.55;;;11.70;44.20;;;;;;5035736;28;20025;-71
2022/04/19 04:35:58;;;;;;;8.35;3.63;;;11.70;44.30;;;;;;5017834;28;20313;-71
2022/04/19 04:38:23;;;;;;;9.77;3.55;;;11.70;44.40;;;;;;5035727;28;20374;-70
2022/04/19 04:40:49;;;;;;;8.98;3.53;;;11.60;44.40;;;;;;5035738;28;20026;-71
2022/04/19 04:43:15;;;;;;;7.90;3.53;;;11.70;44.60;;;;;;5035909;28;20032;-70
2022/04/19 04:45:40;;;;;;;14.55;3.75;;;11.70;44.60;;;;;;5035287;28;20095;-70
2022/04/19 04:50:51;;;;;;;10.20;4.13;;;11.70;44.70;;;;;;5035816;28;20126;-70
2022/04/19 04:53:16;;;;;;;8.60;3.95;;;11.80;44.60;;;;;;5034745;28;20108;-71
2022/04/19 04:55:42;;;;;;;7.05;3.25;;;11.80;44.10;;;;;;5035470;28;20458;-71
2022/04/19 04:58:10;;;;;;;11.25;3.70;;;11.80;44.40;;;;;;5017598;28;20360;-71
2022/04/19 05:00:35;;;;;;;11.70;4.18;;;11.80;44.30;;;;;;5035388;28;20593;-71
2022/04/19 05:03:01;;;;;;;8.52;3.95;;;11.80;44.50;;;;;;5035345;28;20061;-72
2022/04/19 05:05:27;;;;;;;12.40;4.05;;;11.80;44.40;;;;;;5035222;28;20033;-71
2022/04/19 05:07:52;;;;;;;9.80;4.20;;;11.90;44.60;;;;;;5035552;28;20029;-71
2022/04/19 05:10:18;;;;;;;7.45;3.90;;;11.80;44.90;;;;;;5035200;28;20043;-71
2022/04/19 05:12:43;;;;;;;9.32;4.38;;;11.90;45.10;;;;;;5035144;28;20026;-71
2022/04/19 05:15:10;;;;;;;10.45;3.67;;;11.80;44.70;;;;;;5035048;28;20064;-72
2022/04/19 05:17:36;;;;;;;9.82;3.67;;;11.80;44.90;;;;;;5035317;28;20029;-71
2022/04/19 05:20:02;;;;;;;12.77;4.57;;;11.80;45.30;;;;;;5017191;28;20437;-72
2022/04/19 05:22:28;;;;;;;12.50;4.50;;;11.80;45.40;;;;;;5034979;28;20030;-70
2022/04/19 05:24:53;;;;;;;10.63;4.78;;;11.80;45.10;;;;;;5017043;28;20351;-71
2022/04/19 05:27:20;;;;;;;10.18;4.55;;;11.80;45.50;;;;;;5017134;28;20030;-72
2022/04/19 05:29:45;;;;;;;12.45;4.97;;;11.90;45.10;;;;;;5034842;28;20470;-71
2022/04/19 05:32:11;;;;;;;10.98;4.00;;;12.00;45.10;;;;;;5034867;28;20151;-71
2022/04/19 05:34:37;;;;;;;8.98;4.32;;;12.00;45.50;;;;;;5034549;28;20355;-70
2022/04/19 05:37:03;;;;;;;8.60;4.20;;;12.00;45.20;;;;;;5034656;28;20113;-71
2022/04/19 05:39:28;;;;;;;12.82;4.75;;;12.00;46.00;;;;;;5016747;28;20026;-72
2022/04/19 05:41:54;;;;;;;9.52;4.10;;;12.10;45.70;;;;;;5034689;28;20032;-70
2022/04/19 05:44:21;;;;;;;12.48;4.50;;;12.10;45.80;;;;;;5034275;28;20501;-71
2022/04/19 05:46:47;;;;;;;9.35;4.47;;;12.30;45.40;;;;;;5034337;28;20033;-71
2022/04/19 05:49:12;;;;;;;13.50;4.25;;;12.40;45.50;;;;;;5034166;28;20022;-71
2022/04/19 05:51:38;;;;;;;13.98;4.25;;;12.60;45.00;;;;;;5034506;28;20097;-71
2022/04/19 05:54:04;;;;;;;25.15;4.47;;;12.90;44.90;;;;;;5034010;28;20024;-72
2022/04/19 05:56:33;;;;;;;14.00;4.80;;;13.20;44.80;;;;;;5034183;28;20048;-72
2022/04/19 05:58:59;;;;;;;15.85;4.82;;;13.30;44.60;;;;;;5034245;28;20021;-72
2022/04/19 06:01:25;;;;;;;13.38;4.57;;;13.30;44.50;;;;;;5034017;28;20033;-70
2022/04/19 06:06:35;;;;;;;16.30;4.82;;;13.70;44.20;;;;;;5034322;28;20071;-70
2022/04/19 06:09:00;;;;;;;12.48;4.88;;;14.00;44.30;;;;;;5033962;28;20060;-71
2022/04/19 06:11:26;;;;;;;8.77;4.30;;;14.20;44.10;;;;;;5034065;28;20469;-71
2022/04/19 06:13:51;;;;;;;10.88;4.70;;;14.30;43.90;;;;;;5033967;28;20459;-72
2022/04/19 06:16:17;;;;;;;16.25;4.35;;;14.40;43.90;;;;;;5033958;28;20037;-72
2022/04/19 06:18:43;;;;;;;14.75;4.15;;;14.60;43.90;;;;;;5033712;28;20053;-71
2022/04/19 06:21:09;;;;;;;11.77;4.20;;;14.80;43.80;;;;;;5033804;28;20029;-72
2022/04/19 06:23:35;;;;;;;11.57;4.10;;;15.00;43.70;;;;;;5033817;28;20025;-71
2022/04/19 06:26:01;;;;;;;13.85;5.35;;;15.10;43.30;;;;;;5033821;28;20021;-72
2022/04/19 06:28:27;;;;;;;10.40;3.85;;;15.30;43.60;;;;;;5033383;28;20022;-71
2022/04/19 06:30:53;;;;;;;13.55;4.10;;;15.30;42.70;;;;;;5033712;28;20033;-70
2022/04/19 06:33:19;;;;;;;14.32;4.15;;;15.30;43.00;;;;;;5033919;28;20108;-72
2022/04/19 06:35:45;;;;;;;15.45;4.93;;;15.50;43.20;;;;;;5033633;28;20022;-72
2022/04/19 06:38:10;;;;;;;12.30;4.40;;;15.50;43.00;;;;;;5033500;28;20402;-70
2022/04/19 06:40:36;;;;;;;12.05;4.47;;;15.60;43.00;;;;;;5033431;28;20056;-71
2022/04/19 06:43:02;;;;;;;9.20;3.90;;;15.90;43.20;;;;;;5033109;28;20029;-71
2022/04/19 06:45:28;;;;;;;10.63;3.97;;;16.00;42.90;;;;;;5033000;28;20045;-72
2022/04/19 06:48:02;;;;;;;13.43;4.25;;;16.20;42.80;;;;;;5015301;28;20079;-72
2022/04/19 06:50:28;;;;;;;12.65;4.28;;;16.40;42.40;;;;;;5033166;28;20061;-72
2022/04/19 06:52:54;;;;;;;16.65;4.63;;;16.60;42.40;;;;;;5033368;28;20079;-71
2022/04/19 06:55:20;;;;;;;9.82;3.75;;;16.70;42.00;;;;;;5033211;28;20437;-70
2022/04/19 06:57:49;;;;;;;10.05;3.85;;;16.60;41.70;;;;;;5033392;28;20025;-71
2022/04/19 07:00:16;;;;;;;10.93;4.55;;;16.60;41.70;;;;;;5033256;28;20037;-71
2022/04/19 07:02:44;;;;;;;14.15;3.65;;;16.70;41.60;;;;;;5016461;28;20167;-71
2022/04/19 07:05:10;;;;;;;34.35;6.78;;;16.70;41.50;;;;;;5033195;28;20022;-72
2022/04/19 07:07:39;;;;;;;14.52;4.15;;;16.80;41.70;;;;;;5033341;28;20475;-72
2022/04/19 07:10:06;;;;;;;21.80;5.28;;;16.80;41.40;;;;;;5033375;28;20490;-72
2022/04/19 07:12:32;;;;;;;43.63;6.80;;;16.90;41.10;;;;;;5032991;28;20022;-72
2022/04/19 07:14:58;;;;;;;20.92;5.05;;;17.00;41.00;;;;;;5033889;28;20040;-72
2022/04/19 07:17:23;;;;;;;25.88;5.53;;;17.00;41.00;;;;;;5039409;28;20467;-72
2022/04/19 07:28:03;;;;;;;11.85;3.80;;;17.20;39.50;;;;;;5039611;28;20403;-71
2022/04/19 07:30:29;;;;;;;10.43;3.63;;;17.30;40.70;;;;;;5039393;28;20075;-72
2022/04/19 07:32:55;;;;;;;44.55;7.30;;;17.40;40.70;;;;;;5021523;28;20439;-75
2022/04/19 07:35:21;;;;;;;63.45;10.40;;;17.50;40.40;;;;;;5039580;28;20080;-72
2022/04/19 07:37:47;;;;;;;9.35;3.88;;;17.50;40.10;;;;;;5021468;28;20030;-72
2022/04/19 07:40:12;;;;;;;11.75;4.40;;;17.50;39.90;;;;;;5039213;28;20021;-72
2022/04/19 07:42:38;;;;;;;18.08;4.93;;;17.50;40.00;;;;;;5039385;28;20025;-72
2022/04/19 07:45:05;;;;;;;14.35;4.30;;;17.40;39.90;;;;;;5039171;28;20037;-72
2022/04/19 07:47:33;;;;;;;12.63;4.55;;;17.60;39.60;;;;;;5039402;28;20051;-71
2022/04/19 07:49:59;;;;;;;13.55;5.00;;;17.50;39.60;;;;;;5039061;28;20034;-71
2022/04/19 07:52:25;;;;;;;16.38;5.03;;;17.60;39.70;;;;;;5039242;28;20022;-72
2022/04/19 07:54:50;;;;;;;17.05;6.32;;;17.60;40.00;;;;;;5038706;28;20029;-71
2022/04/19 07:57:20;;;;;;;16.20;4.72;;;17.60;40.10;;;;;;5039354;28;20022;-72
2022/04/19 07:59:46;;;;;;;11.43;4.93;;;17.50;40.40;;;;;;5021529;28;20033;-74
2022/04/19 08:02:13;;;;;;;16.00;5.28;;;17.60;40.70;;;;;;5021341;28;20486;-72
2022/04/19 08:04:39;;;;;;;10.82;4.80;;;17.60;40.60;;;;;;5038845;28;20411;-73
2022/04/19 08:07:06;;;;;;;18.25;5.45;;;17.70;40.80;;;;;;5038903;28;20024;-72
2022/04/19 08:09:32;;;;;;;86.97;9.95;;;17.70;40.80;;;;;;5039016;28;20112;-72
2022/04/19 08:11:58;;;;;;;19.88;5.60;;;17.70;40.60;;;;;;5039006;28;20540;-73
2022/04/19 08:14:24;;;;;;;18.55;5.38;;;17.70;40.80;;;;;;5020900;28;20029;-71
2022/04/19 08:16:50;;;;;;;12.73;5.20;;;17.60;41.00;;;;;;5021185;28;20030;-72
2022/04/19 08:19:15;;;;;;;10.05;4.80;;;17.60;41.20;;;;;;5038745;28;20386;-71
2022/04/19 08:21:41;;;;;;;17.50;6.50;;;17.40;41.30;;;;;;5038923;28;20025;-71
2022/04/19 08:24:07;;;;;;;29.00;7.20;;;17.40;41.70;;;;;;5020973;28;20030;-73
2022/04/19 08:26:32;;;;;;;19.92;5.13;;;17.40;42.00;;;;;;5037313;28;20018;-70
2022/04/19 08:28:58;;;;;;;20.75;5.57;;;17.40;42.00;;;;;;5035458;28;20118;-71
2022/04/19 08:31:24;;;;;;;17.10;4.78;;;17.40;42.00;;;;;;5036021;28;20115;-71
2022/04/19 08:33:50;;;;;;;12.55;4.90;;;17.40;42.80;;;;;;5035656;28;20033;-71
2022/04/19 08:36:15;;;;;;;12.73;4.72;;;17.40;43.20;;;;;;5018149;28;20072;-72
2022/04/19 08:38:41;;;;;;;10.25;4.65;;;17.30;43.20;;;;;;5035526;28;20030;-71
2022/04/19 08:41:07;;;;;;;13.50;4.65;;;17.40;42.90;;;;;;5017983;28;20056;-72
2022/04/19 08:43:34;;;;;;;12.45;4.60;;;17.50;43.30;;;;;;5035609;28;20117;-71
2022/04/19 08:46:01;;;;;;;37.45;6.93;;;17.60;44.00;;;;;;5035404;28;20153;-71
2022/04/19 08:48:27;;;;;;;15.48;3.97;;;17.70;44.90;;;;;;5035307;28;20026;-70
2022/04/19 08:50:55;;;;;;;11.30;4.00;;;17.80;45.40;;;;;;5035210;28;20029;-72
2022/04/19 08:58:50;;;;;;;10.80;3.13;;;18.00;45.20;;;;;;5035615;28;20119;-73
2022/04/19 09:01:16;;;;;;;11.02;3.92;;;18.00;46.30;;;;;;5035059;28;20025;-72
2022/04/19 09:03:42;;;;;;;15.23;3.50;;;18.00;46.20;;;;;;5034837;28;20099;-70
2022/04/19 09:06:08;;;;;;;15.48;4.03;;;18.10;46.10;;;;;;5035285;28;20045;-73
2022/04/19 09:08:34;;;;;;;10.38;3.75;;;18.20;46.00;;;;;;5035260;28;20489;-72
2022/04/19 09:11:08;;;;;;;12.70;3.20;;;18.20;46.30;;;;;;5035425;28;20034;-70
2022/04/19 09:13:34;;;;;;;;;;;18.20;45.30;;;;;;5035378;28;20093;-72
2022/04/19 09:16:06;;;;;;;15.13;3.05;;;18.20;46.60;;;;;;5035480;28;20273;-72
2022/04/19 09:18:35;;;;;;;9.27;3.70;;;18.20;45.80;;;;;;5017249;28;20029;-72
2022/04/19 09:21:03;;;;;;;10.45;3.53;;;18.20;45.80;;;;;;5035213;28;20097;-72
2022/04/19 09:23:31;;;;;;;11.93;2.92;;;18.20;46.00;;;;;;5035089;28;20059;-72
2022/04/19 09:25:59;;;;;;;12.55;3.03;;;18.20;46.30;;;;;;5035207;28;20018;-71
2022/04/19 09:28:26;;;;;;;12.68;3.03;;;18.20;45.90;;;;;;5017201;28;20550;-72
2022/04/19 09:30:57;;;;;;;12.88;3.20;;;18.20;46.10;;;;;;5017271;28;20038;-72
2022/04/19 09:33:24;;;;;;;15.70;3.40;;;18.30;46.10;;;;;;5034904;28;20103;-70
2022/04/19 09:36:02;;;;;;;10.85;3.58;;;18.40;45.60;;;;;;5034906;28;20498;-71
2022/04/19 09:38:38;;;;;;;13.77;4.10;;;18.50;45.70;;;;;;5034886;28;20022;-71
2022/04/19 09:41:07;;;;;;;13.65;3.35;;;18.50;45.40;;;;;;5034899;28;20040;-71
2022/04/19 09:43:33;;;;;;;11.50;3.35;;;18.60;45.50;;;;;;5034488;28;20352;-71
2022/04/19 09:46:04;;;;;;;14.50;3.55;;;18.60;45.70;;;;;;5034642;28;20046;-71
2022/04/19 09:48:35;;;;;;;19.40;4.25;;;18.70;45.90;;;;;;5034810;28;20045;-72
2022/04/19 09:51:04;;;;;;;12.20;3.25;;;18.80;45.80;;;;;;5034608;28;20505;-72
2022/04/19 09:53:39;;;;;;;12.65;3.40;;;18.80;46.10;;;;;;5034458;28;20022;-73
2022/04/19 09:56:09;;;;;;;12.43;3.83;;;18.80;45.90;;;;;;5034700;28;20398;-71
2022/04/19 09:58:36;;;;;;;12.13;3.80;;;18.80;45.80;;;;;;5034266;28;20100;-72
2022/04/19 10:01:03;;;;;;;11.23;3.92;;;18.90;45.60;;;;;;5034407;28;20026;-71
2022/04/19 10:08:59;;;;;;;13.82;3.78;;;19.00;45.20;;;;;;5033829;28;20043;-72
2022/04/19 10:11:28;;;;;;;9.98;3.10;;;19.10;45.70;;;;;;5034299;28;20403;-72
2022/04/19 10:13:58;;;;;;;13.20;4.00;;;19.20;45.30;;;;;;5033980;28;20017;-71
2022/04/19 10:16:27;;;;;;;13.80;3.45;;;19.30;45.00;;;;;;5016375;28;20056;-73
2022/04/19 10:18:53;;;;;;;18.15;3.95;;;19.30;44.90;;;;;;5034071;28;20498;-71
2022/04/19 10:21:28;;;;;;;12.07;3.63;;;19.30;45.00;;;;;;5016387;28;20044;-72
2022/04/19 10:24:13;;;;;;;9.93;3.28;;;19.40;45.30;;;;;;5034260;28;20487;-71
2022/04/19 10:26:46;;;;;;;10.18;3.05;;;19.40;44.90;;;;;;5049537;28;20026;-72
2022/04/19 10:29:20;;;;;;;9.00;3.10;;;19.40;45.70;;;;;;5033759;28;20128;-71
2022/04/19 10:31:59;;;;;;;16.55;3.30;;;19.50;45.10;;;;;;5033904;28;20044;-72
2022/04/19 10:34:26;;;;;;;12.63;3.55;;;19.50;45.80;;;;;;5033626;28;20025;-72
2022/04/19 10:36:57;;;;;;;14.30;3.97;;;19.70;45.50;;;;;;5015745;28;20061;-71
2022/04/19 10:39:25;;;;;;;14.25;3.70;;;19.70;45.00;;;;;;5033742;28;20049;-70
2022/04/19 10:41:59;;;;;;;10.88;2.85;;;19.80;44.90;;;;;;5033489;28;20470;-72
2022/04/19 10:44:34;;;;;;;6.75;2.75;;;19.80;44.00;;;;;;5033365;28;20406;-72
2022/04/19 10:47:02;;;;;;;11.68;3.70;;;19.80;44.30;;;;;;5033738;28;20037;-73
2022/04/19 10:49:30;;;;;;;8.88;2.50;;;19.90;44.20;;;;;;5015330;28;20037;-72
2022/04/19 10:52:00;;;;;;;10.07;2.60;;;19.90;43.20;;;;;;5032835;28;20021;-70
2022/04/19 10:55:04;;;;;;;9.30;2.60;;;20.00;42.50;;;;;;5033251;28;20029;-72
2022/04/19 11:00:41;;;;;;;8.85;3.05;;;20.10;41.90;;;;;;5033705;28;20164;-72
2022/04/19 11:03:17;;;;;;;9.63;2.60;;;20.20;42.00;;;;;;5033729;28;20033;-72
2022/04/19 11:05:52;;;;;;;5.65;2.50;;;20.20;41.90;;;;;;5032960;28;20017;-70
2022/04/19 11:08:24;;;;;;;9.45;3.50;;;20.30;42.40;;;;;;5033376;28;20029;-73
2022/04/19 11:11:22;;;;;;;8.88;2.65;;;20.30;42.20;;;;;;5033262;28;20033;-70
2022/04/19 11:14:34;;;;;;;8.57;2.50;;;20.30;42.50;;;;;;5029115;28;20029;-71
2022/04/19 11:17:18;;;;;;;8.48;3.22;;;20.40;42.80;;;;;;5034041;28;20025;-72
2022/04/19 11:19:52;;;;;;;8.57;2.33;;;20.60;42.40;;;;;;5018532;28;20026;-71
2022/04/19 11:22:29;;;;;;;7.18;2.22;;;20.70;41.80;;;;;;5036668;28;20100;-70
2022/04/19 11:25:06;;;;;;;8.68;2.20;;;20.80;41.70;;;;;;5033321;28;20454;-72
2022/04/19 11:27:54;;;;;;;8.07;3.22;;;20.80;41.50;;;;;;5032815;28;20375;-71
2022/04/19 11:30:24;;;;;;;8.10;2.58;;;20.80;41.40;;;;;;5014858;28;20103;-71
2022/04/19 11:32:52;;;;;;;8.95;3.10;;;20.90;41.70;;;;;;5015324;28;20033;-71
2022/04/19 11:35:19;;;;;;;12.45;3.22;;;20.90;41.10;;;;;;5032908;28;20072;-72
2022/04/19 11:37:45;;;;;;;9.32;2.70;;;20.90;40.90;;;;;;5032847;28;20030;-72
2022/04/19 11:48:52;;;;;;;7.97;2.67;;;21.10;41.60;;;;;;5032658;28;20045;-71
2022/04/19 11:51:20;;;;;;;8.57;2.58;;;21.00;41.70;;;;;;5032977;28;20033;-71
2022/04/19 11:53:46;;;;;;;6.72;2.60;;;21.00;41.70;;;;;;5032613;28;20026;-72
2022/04/19 11:56:12;;;;;;;7.40;2.55;;;20.90;40.50;;;;;;5032911;28;20021;-71
2022/04/19 11:58:42;;;;;;;9.68;4.05;;;20.90;40.60;;;;;;5015207;28;20382;-71
2022/04/19 12:01:10;;;;;;;7.18;3.00;;;20.90;40.30;;;;;;5033598;28;20037;-71
2022/04/19 12:03:39;;;;;;;8.65;3.10;;;20.90;39.10;;;;;;5037335;28;20020;-72
2022/04/19 12:06:05;;;;;;;11.63;3.00;;;20.90;39.10;;;;;;5037097;28;20025;-73
2022/04/19 12:08:38;;;;;;;12.00;3.75;;;21.00;40.70;;;;;;5036733;28;20022;-71
2022/04/19 12:11:28;;;;;;;13.02;3.75;;;21.00;40.70;;;;;;5036749;28;20049;-72
2022/04/19 12:13:54;;;;;;;8.27;2.70;;;20.90;40.60;;;;;;5031635;28;20552;-73
2022/04/19 12:16:29;;;;;;;8.55;2.97;;;21.00;40.80;;;;;;5036558;28;20064;-72
2022/04/19 12:18:57;;;;;;;12.25;2.50;;;21.00;39.60;;;;;;5036765;28;20374;-72
2022/04/19 12:21:41;;;;;;;12.15;3.08;;;21.00;40.20;;;;;;5019102;28;20113;-69
2022/04/19 12:24:09;;;;;;;7.70;2.78;;;21.00;40.60;;;;;;5018906;28;20030;-72
2022/04/19 12:26:36;;;;;;;11.20;2.97;;;21.00;40.20;;;;;;5036340;28;20097;-72
2022/04/19 12:29:12;;;;;;;8.65;2.80;;;21.10;40.10;;;;;;5036351;28;20029;-71
2022/04/19 12:48:23;;;;;;;9.65;2.95;;;21.10;42.00;;;;;;5036247;28;20273;-71
2022/04/19 12:51:03;;;;;;;5.57;2.70;;;21.20;41.60;;;;;;5035863;28;20026;-72
2022/04/19 12:58:58;;;;;;;;;;;21.30;39.80;;;;;;5036868;28;20072;-72
2022/04/19 13:04:07;;;;;;;15.25;4.53;;;21.40;39.50;;;;;;5035623;28;20032;-71
2022/04/19 13:20:17;;;;;;;7.15;2.35;;;21.50;35.40;;;;;;5035219;28;20052;-71
2022/04/19 13:30:54;;;;;;;;;;;21.40;35.10;;;;;;5035407;28;20083;-73
2022/04/19 13:38:49;;;;;;;6.47;2.20;;;21.60;36.40;;;;;;5034967;28;20347;-72
2022/04/19 13:41:15;;;;;;;4.72;1.77;;;21.60;36.50;;;;;;5034760;28;20025;-72
2022/04/19 13:43:41;;;;;;;6.80;2.30;;;21.70;36.70;;;;;;5016391;28;20021;-73
2022/04/19 13:48:53;;;;;;;5.82;1.98;;;21.40;37.20;;;;;;5034312;28;20079;-72
2022/04/19 13:56:47;;;;;;;5.90;2.22;;;21.60;37.70;;;;;;5034276;28;20036;-72
2022/04/19 14:18:23;;;;;;;7.90;1.92;;;21.80;39.90;;;;;;5034581;28;20040;-71
2022/04/19 14:26:19;;;;;;;7.45;2.22;;;21.80;40.50;;;;;;5037794;28;20060;-71
2022/04/19 14:34:13;;;;;;;7.88;2.58;;;21.90;41.10;;;;;;5033987;28;20029;-71
2022/04/19 14:50:20;;;;;;;6.97;2.30;;;21.80;39.60;;;;;;5033645;28;20044;-71
2022/04/19 15:01:01;;;;;;;8.10;2.55;;;21.80;39.70;;;;;;5033050;28;19914;-71
2022/04/19 15:03:27;;;;;;;10.68;2.05;;;21.70;39.60;;;;;;5015257;28;20021;-71
2022/04/19 15:30:31;;;;;;;7.68;2.55;;;21.60;39.80;;;;;;5032398;28;20087;-70
2022/04/19 15:43:54;;;;;;;4.25;1.90;;;21.30;41.50;;;;;;5036724;28;20087;-71
2022/04/19 15:46:20;;;;;;;5.85;2.13;;;21.40;41.90;;;;;;5036563;28;20442;-71
2022/04/19 15:48:46;;;;;;;6.05;2.30;;;21.30;41.70;;;;;;5036408;28;20026;-71
2022/04/19 16:02:08;;;;;;;;;;;21.20;41.80;;;;;;5037070;28;20045;-71
2022/04/19 16:04:33;;;;;;;5.95;2.03;;;21.20;42.90;;;;;;5036612;28;20273;-72
2022/04/19 16:07:00;;;;;;;4.68;2.08;;;21.10;42.50;;;;;;5018638;28;20032;-70
2022/04/19 16:09:26;;;;;;;8.57;2.33;;;21.00;42.50;;;;;;5018420;28;20056;-72